sensor_id;sensor_type;location;lat;lon;timestamp;pressure;altitude;pressure_sealevel;temperature;humidity
36828;BME280;22766;48.042;11.192;2023-01-29T00:00:32;95819.59;;;-1.52;100.00
36828;BME280;22766;48.042;11.192;2023-01-29T00:02:59;95823.00;;;-1.53;100.00
36828;BME280;22766;48.042;11.192;2023-01-29T00:05:26;95825.72;;;-1.57;100.00
36828;BME280;22766;48.042;11.192;2023-01-29T00:07:55;95820.84;;;-1.62;100.00
36828;BME280;22766;48.042;11.192;2023-01-29T00:10:23;95817.41;;;-1.61;100.00
36828;BME280;22766;48.042;11.192;2023-01-29T00:12:50;95814.13;;;-1.63;100.00
36828;BME280;22766;48.042;11.192;2023-01-29T00:15:18;95826.72;;;-1.61;100.00
36828;BME280;22766;48.042;11.192;2023-01-29T00:17:45;95828.44;;;-1.62;100.00
36828;BME280;22766;48.042;11.192;2023-01-29T00:20:12;95818.25;;;-1.60;100.00
36828;BME280;22766;48.042;11.192;2023-01-29T00:22:39;95825.06;;;-1.62;100.00
36828;BME280;22766;48.042;11.192;2023-01-29T00:25:06;95828.25;;;-1.57;100.00
36828;BME280;22766;48.042;11.192;2023-01-29T00:27:33;95826.72;;;-1.61;100.00
36828;BME280;22766;48.042;11.192;2023-01-29T00:30:02;95839.34;;;-1.60;100.00
36828;BME280;22766;48.042;11.192;2023-01-29T00:32:39;95841.91;;;-1.61;100.00
36828;BME280;22766;48.042;11.192;2023-01-29T00:35:07;95845.88;;;-1.54;100.00
36828;BME280;22766;48.042;11.192;2023-01-29T00:37:34;95840.91;;;-1.57;100.00
36828;BME280;22766;48.042;11.192;2023-01-29T00:40:01;95846.16;;;-1.62;100.00
36828;BME280;22766;48.042;11.192;2023-01-29T00:42:28;95836.91;;;-1.63;100.00
36828;BME280;22766;48.042;11.192;2023-01-29T00:45:13;95834.31;;;-1.61;100.00
36828;BME280;22766;48.042;11.192;2023-01-29T00:47:40;95830.84;;;-1.59;100.00
36828;BME280;22766;48.042;11.192;2023-01-29T00:50:11;95836.75;;;-1.58;100.00
36828;BME280;22766;48.042;11.192;2023-01-29T00:52:38;95835.84;;;-1.57;100.00
36828;BME280;22766;48.042;11.192;2023-01-29T00:55:08;95836.59;;;-1.55;100.00
36828;BME280;22766;48.042;11.192;2023-01-29T00:57:36;95834.84;;;-1.53;100.00
36828;BME280;22766;48.042;11.192;2023-01-29T01:00:06;95840.81;;;-1.54;100.00
36828;BME280;22766;48.042;11.192;2023-01-29T01:02:34;95844.13;;;-1.54;100.00
36828;BME280;22766;48.042;11.192;2023-01-29T01:05:19;95843.34;;;-1.54;100.00
36828;BME280;22766;48.042;11.192;2023-01-29T01:07:50;95847.63;;;-1.56;100.00
36828;BME280;22766;48.042;11.192;2023-01-29T01:10:27;95839.28;;;-1.58;100.00
36828;BME280;22766;48.042;11.192;2023-01-29T01:13:04;95841.72;;;-1.57;100.00
36828;BME280;22766;48.042;11.192;2023-01-29T01:15:34;95838.13;;;-1.51;100.00
36828;BME280;22766;48.042;11.192;2023-01-29T01:18:02;95846.72;;;-1.55;100.00
36828;BME280;22766;48.042;11.192;2023-01-29T01:20:30;95843.25;;;-1.53;100.00
36828;BME280;22766;48.042;11.192;2023-01-29T01:22:58;95840.72;;;-1.53;100.00
36828;BME280;22766;48.042;11.192;2023-01-29T01:25:25;95846.03;;;-1.59;100.00
36828;BME280;22766;48.042;11.192;2023-01-29T01:27:54;95842.66;;;-1.59;100.00
36828;BME280;22766;48.042;11.192;2023-01-29T01:30:24;95848.16;;;-1.48;100.00
36828;BME280;22766;48.042;11.192;2023-01-29T01:32:51;95853.31;;;-1.51;100.00
36828;BME280;22766;48.042;11.192;2023-01-29T01:35:18;95846.66;;;-1.54;100.00
36828;BME280;22766;48.042;11.192;2023-01-29T01:37:47;95846.94;;;-1.60;100.00
36828;BME280;22766;48.042;11.192;2023-01-29T01:40:17;95843.56;;;-1.60;100.00
36828;BME280;22766;48.042;11.192;2023-01-29T01:42:49;95849.56;;;-1.63;100.00
36828;BME280;22766;48.042;11.192;2023-01-29T01:45:18;95857.22;;;-1.64;100.00
36828;BME280;22766;48.042;11.192;2023-01-29T01:47:48;95861.44;;;-1.65;100.00
36828;BME280;22766;48.042;11.192;2023-01-29T01:52:49;95855.22;;;-1.56;100.00
36828;BME280;22766;48.042;11.192;2023-01-29T01:55:18;95848.41;;;-1.54;100.00
36828;BME280;22766;48.042;11.192;2023-01-29T01:57:49;95847.72;;;-1.59;100.00
36828;BME280;22766;48.042;11.192;2023-01-29T02:00:18;95843.63;;;-1.62;100.00
36828;BME280;22766;48.042;11.192;2023-01-29T02:02:49;95850.41;;;-1.62;100.00
36828;BME280;22766;48.042;11.192;2023-01-29T02:05:35;95851.31;;;-1.65;100.00
36828;BME280;22766;48.042;11.192;2023-01-29T02:12:05;95846.31;;;-1.66;100.00
36828;BME280;22766;48.042;11.192;2023-01-29T02:14:32;95850.91;;;-1.76;100.00
36828;BME280;22766;48.042;11.192;2023-01-29T02:17:05;95855.03;;;-1.73;100.00
36828;BME280;22766;48.042;11.192;2023-01-29T02:28:14;95858.97;;;-1.66;100.00
36828;BME280;22766;48.042;11.192;2023-01-29T02:36:25;95843.94;;;-1.69;100.00
36828;BME280;22766;48.042;11.192;2023-01-29T02:42:14;95830.59;;;-1.74;100.00
36828;BME280;22766;48.042;11.192;2023-01-29T02:44:50;95839.97;;;-1.76;100.00
36828;BME280;22766;48.042;11.192;2023-01-29T02:47:31;95840.16;;;-1.81;100.00
36828;BME280;22766;48.042;11.192;2023-01-29T02:53:17;95835.78;;;-1.77;100.00
36828;BME280;22766;48.042;11.192;2023-01-29T03:01:24;95825.44;;;-1.71;100.00
36828;BME280;22766;48.042;11.192;2023-01-29T03:04:03;95822.84;;;-1.70;100.00
36828;BME280;22766;48.042;11.192;2023-01-29T03:06:38;95823.72;;;-1.71;100.00
36828;BME280;22766;48.042;11.192;2023-01-29T03:09:08;95826.50;;;-1.77;100.00
36828;BME280;22766;48.042;11.192;2023-01-29T03:11:48;95826.53;;;-1.78;100.00
36828;BME280;22766;48.042;11.192;2023-01-29T03:14:35;95831.38;;;-1.72;100.00
36828;BME280;22766;48.042;11.192;2023-01-29T03:17:26;95826.38;;;-1.74;100.00
36828;BME280;22766;48.042;11.192;2023-01-29T03:19:57;95832.38;;;-1.76;100.00
36828;BME280;22766;48.042;11.192;2023-01-29T03:22:24;95831.72;;;-1.81;100.00
36828;BME280;22766;48.042;11.192;2023-01-29T03:24:57;95834.91;;;-1.76;100.00
36828;BME280;22766;48.042;11.192;2023-01-29T03:27:54;95827.84;;;-1.68;100.00
36828;BME280;22766;48.042;11.192;2023-01-29T03:30:52;95831.72;;;-1.81;100.00
36828;BME280;22766;48.042;11.192;2023-01-29T03:36:22;95838.38;;;-1.79;100.00
36828;BME280;22766;48.042;11.192;2023-01-29T03:38:52;95834.13;;;-1.78;100.00
36828;BME280;22766;48.042;11.192;2023-01-29T03:49:11;95833.31;;;-1.79;100.00
36828;BME280;22766;48.042;11.192;2023-01-29T03:54:24;95819.53;;;-1.72;100.00
36828;BME280;22766;48.042;11.192;2023-01-29T03:57:30;95823.97;;;-1.77;100.00
36828;BME280;22766;48.042;11.192;2023-01-29T04:00:10;95817.91;;;-1.73;100.00
36828;BME280;22766;48.042;11.192;2023-01-29T04:05:58;95804.78;;;-1.82;100.00
36828;BME280;22766;48.042;11.192;2023-01-29T04:08:36;95799.59;;;-1.79;100.00
36828;BME280;22766;48.042;11.192;2023-01-29T04:11:10;95794.75;;;-1.85;100.00
36828;BME280;22766;48.042;11.192;2023-01-29T04:13:41;95787.84;;;-1.80;100.00
36828;BME280;22766;48.042;11.192;2023-01-29T04:16:13;95793.69;;;-1.80;100.00
36828;BME280;22766;48.042;11.192;2023-01-29T04:18:59;95793.84;;;-1.83;100.00
36828;BME280;22766;48.042;11.192;2023-01-29T04:21:33;95796.28;;;-1.81;100.00
36828;BME280;22766;48.042;11.192;2023-01-29T04:24:00;95796.22;;;-1.80;100.00
36828;BME280;22766;48.042;11.192;2023-01-29T04:31:44;95794.06;;;-1.89;100.00
36828;BME280;22766;48.042;11.192;2023-01-29T04:37:16;95798.13;;;-1.85;100.00
36828;BME280;22766;48.042;11.192;2023-01-29T04:39:53;95790.47;;;-1.83;100.00
36828;BME280;22766;48.042;11.192;2023-01-29T04:47:54;95803.81;;;-1.80;100.00
36828;BME280;22766;48.042;11.192;2023-01-29T04:50:31;95810.63;;;-1.80;100.00
36828;BME280;22766;48.042;11.192;2023-01-29T04:53:19;95807.88;;;-1.76;100.00
36828;BME280;22766;48.042;11.192;2023-01-29T04:55:56;95810.47;;;-1.77;100.00
36828;BME280;22766;48.042;11.192;2023-01-29T04:58:42;95797.69;;;-1.74;100.00
36828;BME280;22766;48.042;11.192;2023-01-29T05:01:13;95800.22;;;-1.74;100.00
36828;BME280;22766;48.042;11.192;2023-01-29T05:03:44;95797.75;;;-1.76;100.00
36828;BME280;22766;48.042;11.192;2023-01-29T05:06:13;95793.59;;;-1.77;100.00
36828;BME280;22766;48.042;11.192;2023-01-29T05:08:41;95790.25;;;-1.77;100.00
36828;BME280;22766;48.042;11.192;2023-01-29T05:11:08;95797.13;;;-1.81;100.00
36828;BME280;22766;48.042;11.192;2023-01-29T05:13:37;95800.59;;;-1.83;100.00
36828;BME280;22766;48.042;11.192;2023-01-29T05:16:13;95807.53;;;-1.88;100.00
36828;BME280;22766;48.042;11.192;2023-01-29T05:18:41;95815.06;;;-1.87;100.00
36828;BME280;22766;48.042;11.192;2023-01-29T05:21:08;95809.09;;;-1.84;100.00
36828;BME280;22766;48.042;11.192;2023-01-29T05:23:35;95814.78;;;-1.79;100.00
36828;BME280;22766;48.042;11.192;2023-01-29T05:26:04;95814.78;;;-1.79;100.00
36828;BME280;22766;48.042;11.192;2023-01-29T05:28:32;95823.38;;;-1.83;100.00
36828;BME280;22766;48.042;11.192;2023-01-29T05:30:58;95830.03;;;-1.81;100.00
36828;BME280;22766;48.042;11.192;2023-01-29T05:33:26;95836.72;;;-1.80;100.00
36828;BME280;22766;48.042;11.192;2023-01-29T05:35:54;95846.91;;;-1.81;100.00
36828;BME280;22766;48.042;11.192;2023-01-29T05:38:21;95847.81;;;-1.82;100.00
36828;BME280;22766;48.042;11.192;2023-01-29T05:40:48;95846.91;;;-1.81;100.00
36828;BME280;22766;48.042;11.192;2023-01-29T05:43:19;95848.59;;;-1.82;100.00
36828;BME280;22766;48.042;11.192;2023-01-29T05:45:57;95852.88;;;-1.82;100.00
36828;BME280;22766;48.042;11.192;2023-01-29T05:48:26;95848.66;;;-1.83;100.00
36828;BME280;22766;48.042;11.192;2023-01-29T05:50:59;95849.97;;;-1.73;100.00
36828;BME280;22766;48.042;11.192;2023-01-29T05:53:27;95849.28;;;-1.77;100.00
36828;BME280;22766;48.042;11.192;2023-01-29T05:55:54;95848.56;;;-1.80;100.00
36828;BME280;22766;48.042;11.192;2023-01-29T05:58:22;95849.59;;;-1.86;100.00
36828;BME280;22766;48.042;11.192;2023-01-29T06:00:49;95851.50;;;-1.91;100.00
36828;BME280;22766;48.042;11.192;2023-01-29T06:03:15;95848.81;;;-1.86;100.00
36828;BME280;22766;48.042;11.192;2023-01-29T06:05:42;95853.16;;;-1.90;100.00
36828;BME280;22766;48.042;11.192;2023-01-29T06:08:09;95854.72;;;-1.88;100.00
36828;BME280;22766;48.042;11.192;2023-01-29T06:10:35;95856.41;;;-1.86;100.00
36828;BME280;22766;48.042;11.192;2023-01-29T06:13:02;95856.56;;;-1.91;100.00
36828;BME280;22766;48.042;11.192;2023-01-29T06:15:29;95846.38;;;-1.90;100.00
36828;BME280;22766;48.042;11.192;2023-01-29T06:17:56;95850.44;;;-1.85;100.00
36828;BME280;22766;48.042;11.192;2023-01-29T06:20:23;95854.63;;;-1.84;100.00
36828;BME280;22766;48.042;11.192;2023-01-29T06:22:50;95854.09;;;-1.93;100.00
36828;BME280;22766;48.042;11.192;2023-01-29T06:25:16;95855.00;;;-1.95;100.00
36828;BME280;22766;48.042;11.192;2023-01-29T06:27:49;95851.00;;;-2.01;100.00
36828;BME280;22766;48.042;11.192;2023-01-29T06:30:17;95852.31;;;-1.91;100.00
36828;BME280;22766;48.042;11.192;2023-01-29T06:32:44;95846.06;;;-2.04;100.00
36828;BME280;22766;48.042;11.192;2023-01-29T06:35:11;95852.69;;;-2.00;100.00
36828;BME280;22766;48.042;11.192;2023-01-29T06:37:37;95852.69;;;-2.00;100.00
36828;BME280;22766;48.042;11.192;2023-01-29T06:40:04;95857.75;;;-2.01;100.00
36828;BME280;22766;48.042;11.192;2023-01-29T06:42:34;95858.03;;;-2.09;100.00
36828;BME280;22766;48.042;11.192;2023-01-29T06:45:00;95857.13;;;-2.06;100.00
36828;BME280;22766;48.042;11.192;2023-01-29T06:47:27;95848.69;;;-2.07;100.00
36828;BME280;22766;48.042;11.192;2023-01-29T06:49:53;95860.56;;;-2.09;100.00
36828;BME280;22766;48.042;11.192;2023-01-29T06:52:21;95861.28;;;-2.05;100.00
36828;BME280;22766;48.042;11.192;2023-01-29T06:54:48;95862.13;;;-2.05;100.00
36828;BME280;22766;48.042;11.192;2023-01-29T06:57:14;95866.19;;;-2.01;100.00
36828;BME280;22766;48.042;11.192;2023-01-29T06:59:41;95863.09;;;-2.09;100.00
36828;BME280;22766;48.042;11.192;2023-01-29T07:02:09;95862.53;;;-2.15;100.00
36828;BME280;22766;48.042;11.192;2023-01-29T07:04:36;95865.00;;;-2.14;100.00
36828;BME280;22766;48.042;11.192;2023-01-29T07:07:03;95859.81;;;-2.11;100.00
36828;BME280;22766;48.042;11.192;2023-01-29T07:09:30;95867.09;;;-2.02;100.00
36828;BME280;22766;48.042;11.192;2023-01-29T07:11:56;95865.31;;;-2.00;100.00
36828;BME280;22766;48.042;11.192;2023-01-29T07:14:23;95862.53;;;-1.94;100.00
36828;BME280;22766;48.042;11.192;2023-01-29T07:16:50;95859.16;;;-1.93;100.00
36828;BME280;22766;48.042;11.192;2023-01-29T07:19:16;95862.66;;;-1.97;100.00
36828;BME280;22766;48.042;11.192;2023-01-29T07:21:43;95853.44;;;-1.98;100.00
36828;BME280;22766;48.042;11.192;2023-01-29T07:24:10;95842.84;;;-2.07;100.00
36828;BME280;22766;48.042;11.192;2023-01-29T07:26:36;95833.72;;;-2.11;100.00
36828;BME280;22766;48.042;11.192;2023-01-29T07:29:03;95835.34;;;-2.10;100.00
36828;BME280;22766;48.042;11.192;2023-01-29T07:31:30;95835.41;;;-2.12;100.00
36828;BME280;22766;48.042;11.192;2023-01-29T07:33:57;95841.59;;;-1.97;100.00
36828;BME280;22766;48.042;11.192;2023-01-29T07:36:23;95840.53;;;-1.92;100.00
36828;BME280;22766;48.042;11.192;2023-01-29T07:38:50;95833.44;;;-2.04;100.00
36828;BME280;22766;48.042;11.192;2023-01-29T07:41:17;95839.41;;;-2.06;100.00
36828;BME280;22766;48.042;11.192;2023-01-29T07:43:45;95830.69;;;-1.98;100.00
36828;BME280;22766;48.042;11.192;2023-01-29T07:46:11;95825.19;;;-1.87;100.00
36828;BME280;22766;48.042;11.192;2023-01-29T07:48:38;95829.63;;;-1.92;100.00
36828;BME280;22766;48.042;11.192;2023-01-29T07:51:05;95834.63;;;-1.91;100.00
36828;BME280;22766;48.042;11.192;2023-01-29T07:53:32;95835.03;;;-1.79;100.00
36828;BME280;22766;48.042;11.192;2023-01-29T07:55:58;95836.44;;;-1.72;100.00
36828;BME280;22766;48.042;11.192;2023-01-29T07:58:25;95838.66;;;-1.65;100.00
36828;BME280;22766;48.042;11.192;2023-01-29T08:00:52;95835.97;;;-1.60;100.00
36828;BME280;22766;48.042;11.192;2023-01-29T08:03:18;95830.00;;;-1.59;100.00
36828;BME280;22766;48.042;11.192;2023-01-29T08:05:45;95828.50;;;-1.63;100.00
36828;BME280;22766;48.042;11.192;2023-01-29T08:08:12;95828.53;;;-1.65;100.00
36828;BME280;22766;48.042;11.192;2023-01-29T08:10:40;95823.25;;;-1.59;100.00
36828;BME280;22766;48.042;11.192;2023-01-29T08:13:07;95807.28;;;-1.61;100.00
36828;BME280;22766;48.042;11.192;2023-01-29T08:15:34;95815.59;;;-1.57;100.00
36828;BME280;22766;48.042;11.192;2023-01-29T08:18:04;95814.22;;;-1.44;100.00
36828;BME280;22766;48.042;11.192;2023-01-29T08:20:30;95814.44;;;-1.29;100.00
36828;BME280;22766;48.042;11.192;2023-01-29T08:23:02;95816.41;;;-1.35;100.00
36828;BME280;22766;48.042;11.192;2023-01-29T08:25:29;95818.47;;;-1.45;100.00
36828;BME280;22766;48.042;11.192;2023-01-29T08:27:58;95814.63;;;-1.33;100.00
36828;BME280;22766;48.042;11.192;2023-01-29T08:30:29;95813.56;;;-1.28;100.00
36828;BME280;22766;48.042;11.192;2023-01-29T08:32:56;95819.88;;;-1.18;100.00
36828;BME280;22766;48.042;11.192;2023-01-29T08:35:23;95833.38;;;-1.17;100.00
36828;BME280;22766;48.042;11.192;2023-01-29T08:37:59;95831.50;;;-1.12;100.00
36828;BME280;22766;48.042;11.192;2023-01-29T08:40:27;95831.78;;;-1.20;100.00
36828;BME280;22766;48.042;11.192;2023-01-29T08:43:05;95831.50;;;-1.12;100.00
36828;BME280;22766;48.042;11.192;2023-01-29T08:45:36;95824.53;;;-1.07;100.00
36828;BME280;22766;48.042;11.192;2023-01-29T08:48:03;95836.94;;;-1.01;100.00
36828;BME280;22766;48.042;11.192;2023-01-29T08:50:30;95845.44;;;-1.02;100.00
36828;BME280;22766;48.042;11.192;2023-01-29T08:52:58;95849.00;;;-0.86;100.00
36828;BME280;22766;48.042;11.192;2023-01-29T08:55:26;95856.03;;;-0.72;100.00
36828;BME280;22766;48.042;11.192;2023-01-29T08:57:53;95860.13;;;-0.90;100.00
36828;BME280;22766;48.042;11.192;2023-01-29T09:00:20;95860.88;;;-1.08;100.00
36828;BME280;22766;48.042;11.192;2023-01-29T09:02:46;95867.69;;;-0.88;100.00
36828;BME280;22766;48.042;11.192;2023-01-29T09:05:13;95869.03;;;-0.80;100.00
36828;BME280;22766;48.042;11.192;2023-01-29T09:07:40;95868.63;;;-0.71;100.00
36828;BME280;22766;48.042;11.192;2023-01-29T09:10:08;95869.50;;;-0.52;100.00
36828;BME280;22766;48.042;11.192;2023-01-29T09:12:34;95872.56;;;-0.44;100.00
36828;BME280;22766;48.042;11.192;2023-01-29T09:15:01;95877.16;;;-0.33;100.00
36828;BME280;22766;48.042;11.192;2023-01-29T09:17:30;95883.53;;;-0.25;100.00
36828;BME280;22766;48.042;11.192;2023-01-29T09:19:57;95883.50;;;-0.23;100.00
36828;BME280;22766;48.042;11.192;2023-01-29T09:22:24;95888.31;;;-0.37;100.00
36828;BME280;22766;48.042;11.192;2023-01-29T09:24:53;95891.47;;;-0.32;100.00
36828;BME280;22766;48.042;11.192;2023-01-29T09:27:19;95897.88;;;-0.24;100.00
36828;BME280;22766;48.042;11.192;2023-01-29T09:29:46;95897.38;;;-0.12;100.00
36828;BME280;22766;48.042;11.192;2023-01-29T09:32:12;95900.38;;;-0.04;100.00
36828;BME280;22766;48.042;11.192;2023-01-29T09:34:42;95894.69;;;-0.09;100.00
36828;BME280;22766;48.042;11.192;2023-01-29T09:37:08;95897.22;;;-0.09;100.00
36828;BME280;22766;48.042;11.192;2023-01-29T09:39:35;95905.25;;;-0.18;100.00
36828;BME280;22766;48.042;11.192;2023-01-29T09:42:21;95908.75;;;-0.40;100.00
36828;BME280;22766;48.042;11.192;2023-01-29T09:45:11;95909.66;;;-0.23;100.00
36828;BME280;22766;48.042;11.192;2023-01-29T09:47:41;95915.91;;;-0.30;100.00
36828;BME280;22766;48.042;11.192;2023-01-29T09:50:35;95914.25;;;-0.31;100.00
36828;BME280;22766;48.042;11.192;2023-01-29T09:53:17;95913.88;;;-0.42;100.00
36828;BME280;22766;48.042;11.192;2023-01-29T09:55:51;95919.69;;;-0.40;100.00
36828;BME280;22766;48.042;11.192;2023-01-29T09:58:26;95927.91;;;-0.33;100.00
36828;BME280;22766;48.042;11.192;2023-01-29T10:07:12;95904.66;;;-0.24;100.00
36828;BME280;22766;48.042;11.192;2023-01-29T10:18:15;95904.88;;;-0.29;100.00
36828;BME280;22766;48.042;11.192;2023-01-29T10:25:47;95898.97;;;-0.29;100.00
36828;BME280;22766;48.042;11.192;2023-01-29T10:30:50;95898.63;;;-0.22;100.00
36828;BME280;22766;48.042;11.192;2023-01-29T10:33:27;95902.78;;;-0.19;100.00
36828;BME280;22766;48.042;11.192;2023-01-29T10:36:21;95901.38;;;-0.08;100.00
36828;BME280;22766;48.042;11.192;2023-01-29T10:38:49;95907.41;;;-0.49;100.00
36828;BME280;22766;48.042;11.192;2023-01-29T10:50:24;95894.28;;;-0.38;100.00
36828;BME280;22766;48.042;11.192;2023-01-29T10:58:51;95887.22;;;-0.32;100.00
36828;BME280;22766;48.042;11.192;2023-01-29T11:01:19;95891.97;;;-0.24;100.00
36828;BME280;22766;48.042;11.192;2023-01-29T11:03:55;95884.59;;;-0.10;100.00
36828;BME280;22766;48.042;11.192;2023-01-29T11:06:33;95885.44;;;-0.10;100.00
36828;BME280;22766;48.042;11.192;2023-01-29T11:12:02;95875.59;;;-0.17;100.00
36828;BME280;22766;48.042;11.192;2023-01-29T11:14:44;95876.31;;;-0.14;100.00
36828;BME280;22766;48.042;11.192;2023-01-29T11:17:19;95875.88;;;-0.05;100.00
36828;BME280;22766;48.042;11.192;2023-01-29T11:19:48;95869.53;;;0.06;100.00
36828;BME280;22766;48.042;11.192;2023-01-29T11:22:23;95872.34;;;-0.01;100.00
36828;BME280;22766;48.042;11.192;2023-01-29T11:27:56;95863.03;;;-0.20;100.00
36828;BME280;22766;48.042;11.192;2023-01-29T11:30:38;95859.81;;;-0.24;100.00
36828;BME280;22766;48.042;11.192;2023-01-29T11:35:36;95865.84;;;-0.08;100.00
36828;BME280;22766;48.042;11.192;2023-01-29T11:40:43;95857.22;;;-0.61;100.00
36828;BME280;22766;48.042;11.192;2023-01-29T11:45:44;95848.81;;;-0.43;100.00
36828;BME280;22766;48.042;11.192;2023-01-29T11:48:17;95848.50;;;-0.35;100.00
36828;BME280;22766;48.042;11.192;2023-01-29T11:50:53;95847.44;;;-0.70;100.00
36828;BME280;22766;48.042;11.192;2023-01-29T11:53:44;95837.84;;;-0.43;100.00
36828;BME280;22766;48.042;11.192;2023-01-29T11:58:44;95823.19;;;-0.37;100.00
36828;BME280;22766;48.042;11.192;2023-01-29T12:01:15;95819.53;;;-0.50;100.00
36828;BME280;22766;48.042;11.192;2023-01-29T12:03:47;95811.09;;;-0.69;100.00
36828;BME280;22766;48.042;11.192;2023-01-29T12:06:18;95795.19;;;-0.72;100.00
36828;BME280;22766;48.042;11.192;2023-01-29T12:08:53;95775.69;;;-0.72;100.00
36828;BME280;22766;48.042;11.192;2023-01-29T12:11:33;95769.69;;;-0.69;100.00
36828;BME280;22766;48.042;11.192;2023-01-29T12:14:02;95771.72;;;-0.77;100.00
36828;BME280;22766;48.042;11.192;2023-01-29T12:19:08;95777.63;;;-0.77;100.00
36828;BME280;22766;48.042;11.192;2023-01-29T12:21:44;95777.88;;;-0.83;100.00
36828;BME280;22766;48.042;11.192;2023-01-29T12:24:24;95780.81;;;-0.92;100.00
36828;BME280;22766;48.042;11.192;2023-01-29T12:29:55;95780.88;;;-0.55;100.00
36828;BME280;22766;48.042;11.192;2023-01-29T12:32:33;95786.31;;;-0.44;100.00
36828;BME280;22766;48.042;11.192;2023-01-29T12:40:32;95783.50;;;-0.19;100.00
36828;BME280;22766;48.042;11.192;2023-01-29T12:43:25;95780.56;;;-0.29;100.00
36828;BME280;22766;48.042;11.192;2023-01-29T12:45:54;95773.75;;;-0.47;100.00
36828;BME280;22766;48.042;11.192;2023-01-29T12:48:32;95781.63;;;-0.34;100.00
36828;BME280;22766;48.042;11.192;2023-01-29T12:51:06;95775.81;;;-0.36;100.00
36828;BME280;22766;48.042;11.192;2023-01-29T12:53:38;95777.19;;;-0.11;100.00
36828;BME280;22766;48.042;11.192;2023-01-29T12:56:14;95773.03;;;0.24;100.00
36828;BME280;22766;48.042;11.192;2023-01-29T12:58:47;95763.75;;;-0.31;100.00
36828;BME280;22766;48.042;11.192;2023-01-29T13:01:21;95760.94;;;-0.44;100.00
36828;BME280;22766;48.042;11.192;2023-01-29T13:03:57;95760.31;;;-0.49;100.00
36828;BME280;22766;48.042;11.192;2023-01-29T13:06:33;95747.63;;;-0.49;100.00
36828;BME280;22766;48.042;11.192;2023-01-29T13:09:03;95744.75;;;-0.41;100.00
36828;BME280;22766;48.042;11.192;2023-01-29T13:11:39;95736.53;;;-0.28;100.00
36828;BME280;22766;48.042;11.192;2023-01-29T13:17:01;95713.75;;;-0.11;100.00
36828;BME280;22766;48.042;11.192;2023-01-29T13:19:39;95717.59;;;-0.21;100.00
36828;BME280;22766;48.042;11.192;2023-01-29T13:22:16;95711.22;;;-0.29;100.00
36828;BME280;22766;48.042;11.192;2023-01-29T13:24:44;95705.44;;;-0.14;100.00
36828;BME280;22766;48.042;11.192;2023-01-29T13:27:32;95699.97;;;-0.24;100.00
36828;BME280;22766;48.042;11.192;2023-01-29T13:29:59;95698.16;;;-0.57;100.00
36828;BME280;22766;48.042;11.192;2023-01-29T13:32:28;95701.16;;;-0.49;100.00
36828;BME280;22766;48.042;11.192;2023-01-29T13:35:01;95707.94;;;-0.68;100.00
36828;BME280;22766;48.042;11.192;2023-01-29T13:37:40;95704.38;;;-0.64;100.00
36828;BME280;22766;48.042;11.192;2023-01-29T13:40:28;95702.00;;;-0.67;100.00
36828;BME280;22766;48.042;11.192;2023-01-29T13:42:56;95700.69;;;-0.57;100.00
36828;BME280;22766;48.042;11.192;2023-01-29T13:45:35;95699.19;;;-0.61;100.00
36828;BME280;22766;48.042;11.192;2023-01-29T13:48:16;95693.06;;;-0.76;100.00
36828;BME280;22766;48.042;11.192;2023-01-29T13:50:44;95692.97;;;-0.93;100.00
36828;BME280;22766;48.042;11.192;2023-01-29T13:53:24;95690.44;;;-0.93;100.00
36828;BME280;22766;48.042;11.192;2023-01-29T13:55:52;95691.19;;;-0.91;100.00
36828;BME280;22766;48.042;11.192;2023-01-29T14:00:58;95686.13;;;-0.91;100.00
36828;BME280;22766;48.042;11.192;2023-01-29T14:06:01;95684.72;;;-0.59;100.00
36828;BME280;22766;48.042;11.192;2023-01-29T14:13:41;95671.22;;;-0.78;100.00
36828;BME280;22766;48.042;11.192;2023-01-29T14:18:49;95663.53;;;-0.96;100.00
36828;BME280;22766;48.042;11.192;2023-01-29T14:21:25;95654.44;;;-0.81;100.00
36828;BME280;22766;48.042;11.192;2023-01-29T14:26:43;95655.03;;;-0.76;100.00
36828;BME280;22766;48.042;11.192;2023-01-29T14:29:21;95652.03;;;-0.65;100.00
36828;BME280;22766;48.042;11.192;2023-01-29T14:32:13;95656.09;;;-0.80;100.00
36828;BME280;22766;48.042;11.192;2023-01-29T14:34:47;95657.84;;;-0.45;100.00
36828;BME280;22766;48.042;11.192;2023-01-29T14:39:50;95659.53;;;-0.45;100.00
36828;BME280;22766;48.042;11.192;2023-01-29T14:44:56;95673.41;;;-0.89;100.00
36828;BME280;22766;48.042;11.192;2023-01-29T14:49:56;95675.19;;;-0.73;100.00
36828;BME280;22766;48.042;11.192;2023-01-29T14:52:28;95688.22;;;-0.80;100.00
36828;BME280;22766;48.042;11.192;2023-01-29T14:54:59;95683.91;;;-0.78;100.00
36828;BME280;22766;48.042;11.192;2023-01-29T14:57:29;95685.41;;;-0.74;100.00
36828;BME280;22766;48.042;11.192;2023-01-29T15:00:00;95690.00;;;-0.64;100.00
36828;BME280;22766;48.042;11.192;2023-01-29T15:02:37;95697.88;;;-0.70;100.00
36828;BME280;22766;48.042;11.192;2023-01-29T15:05:16;95692.34;;;-0.78;100.00
36828;BME280;22766;48.042;11.192;2023-01-29T15:07:54;95682.50;;;-0.85;100.00
36828;BME280;22766;48.042;11.192;2023-01-29T15:10:36;95679.47;;;-0.38;100.00
36828;BME280;22766;48.042;11.192;2023-01-29T15:13:06;95684.75;;;-0.24;100.00
36828;BME280;22766;48.042;11.192;2023-01-29T15:15:48;95687.78;;;-0.53;100.00
36828;BME280;22766;48.042;11.192;2023-01-29T15:18:42;95684.16;;;-0.84;100.00
36828;BME280;22766;48.042;11.192;2023-01-29T15:21:17;95680.63;;;-1.01;100.00
36828;BME280;22766;48.042;11.192;2023-01-29T15:23:45;95682.31;;;-1.00;100.00
36828;BME280;22766;48.042;11.192;2023-01-29T15:26:21;95686.63;;;-1.02;100.00
36828;BME280;22766;48.042;11.192;2023-01-29T15:28:57;95683.47;;;-1.07;100.00
36828;BME280;22766;48.042;11.192;2023-01-29T15:31:30;95686.81;;;-1.06;100.00
36828;BME280;22766;48.042;11.192;2023-01-29T15:34:06;95685.03;;;-1.04;100.00
36828;BME280;22766;48.042;11.192;2023-01-29T15:36:33;95701.25;;;-1.08;100.00